createdAt,value
2023-03-13T00:02:06.752Z,2.53
2023-03-13T00:04:34.689Z,2.42
2023-03-13T00:07:04.062Z,1.75
2023-03-13T00:09:31.987Z,2.65
2023-03-13T00:11:59.725Z,2.15
2023-03-13T00:14:27.550Z,2.47
2023-03-13T00:16:55.303Z,2.47
2023-03-13T00:19:23.071Z,3.47
2023-03-13T00:21:50.799Z,1.65
2023-03-13T00:24:20.020Z,3.42
2023-03-13T00:26:47.737Z,2.15
2023-03-13T00:29:15.614Z,2.33
2023-03-13T00:31:43.355Z,2.47
2023-03-13T00:34:11.646Z,1.95
2023-03-13T00:36:39.355Z,2.60
2023-03-13T00:39:07.608Z,1.60
2023-03-13T00:41:39.797Z,1.45
2023-03-13T00:44:08.256Z,2.67
2023-03-13T00:46:36.464Z,2.78
2023-03-13T00:49:04.459Z,2.67
2023-03-13T00:51:35.558Z,2.25
2023-03-13T00:54:04.836Z,2.92
2023-03-13T00:56:33.997Z,1.80
2023-03-13T00:59:03.249Z,2.33
2023-03-13T01:01:33.095Z,2.33
2023-03-13T01:04:03.462Z,2.35
2023-03-13T01:06:34.193Z,2.30
2023-03-13T01:09:02.158Z,2.13
2023-03-13T01:11:32.045Z,2.33
2023-03-13T01:14:02.230Z,2.28
2023-03-13T01:16:33.309Z,2.13
2023-03-13T01:19:03.201Z,1.58
2023-03-13T01:21:31.594Z,2.42
2023-03-13T01:23:59.913Z,2.08
2023-03-13T01:26:28.289Z,2.63
2023-03-13T01:28:56.519Z,1.73
2023-03-13T01:31:27.066Z,2.50
2023-03-13T01:33:58.401Z,2.30
2023-03-13T01:36:27.128Z,2.72
2023-03-13T01:38:57.102Z,2.50
2023-03-13T01:41:25.817Z,2.50
2023-03-13T01:43:55.469Z,2.60
2023-03-13T01:46:25.087Z,2.13
2023-03-13T01:49:16.163Z,1.65
2023-03-13T01:52:08.595Z,1.80
2023-03-13T01:54:47.091Z,2.10
2023-03-13T01:57:20.205Z,2.00
2023-03-13T01:59:52.372Z,2.28
2023-03-13T02:02:21.370Z,1.80
2023-03-13T02:04:55.506Z,1.90
2023-03-13T02:07:27.176Z,1.75
2023-03-13T02:09:57.583Z,1.95
2023-03-13T02:12:31.441Z,2.05
2023-03-13T02:15:01.712Z,1.60
2023-03-13T02:17:31.161Z,1.20
2023-03-13T02:20:01.053Z,2.10
2023-03-13T02:22:36.902Z,1.67
2023-03-13T02:27:37.840Z,1.98
2023-03-13T02:30:07.407Z,1.48
2023-03-13T02:32:35.179Z,1.85
2023-03-13T02:35:07.644Z,2.05
2023-03-13T02:37:37.270Z,2.00
2023-03-13T02:40:15.654Z,1.60
2023-03-13T02:42:46.958Z,1.92
2023-03-13T02:45:16.201Z,2.10
2023-03-13T02:47:45.245Z,2.30
2023-03-13T02:50:14.971Z,1.63
2023-03-13T02:52:46.365Z,2.65
2023-03-13T02:55:18.615Z,2.15
2023-03-13T02:57:47.887Z,1.80
2023-03-13T03:00:18.070Z,1.58
2023-03-13T03:02:46.541Z,1.73
2023-03-13T03:05:15.581Z,8.85
2023-03-13T03:07:43.505Z,1.58
2023-03-13T03:10:12.778Z,1.65
2023-03-13T03:12:42.105Z,1.60
2023-03-13T03:15:12.409Z,1.23
2023-03-13T03:17:44.801Z,1.60
2023-03-13T03:20:13.288Z,1.70
2023-03-13T03:22:43.860Z,1.63
2023-03-13T03:25:11.654Z,1.40
2023-03-13T03:27:39.522Z,2.13
2023-03-13T03:30:12.261Z,1.52
2023-03-13T03:32:40.740Z,1.55
2023-03-13T03:35:09.090Z,1.30
2023-03-13T03:37:37.079Z,1.20
2023-03-13T03:40:06.760Z,1.67
2023-03-13T03:42:35.112Z,3.55
2023-03-13T03:45:03.224Z,3.60
2023-03-13T03:47:33.125Z,2.25
2023-03-13T03:50:03.485Z,1.83
2023-03-13T03:52:36.257Z,1.50
2023-03-13T03:55:04.481Z,1.35
2023-03-13T03:57:32.858Z,1.65
2023-03-13T04:00:00.878Z,2.15
2023-03-13T04:02:28.660Z,1.98
2023-03-13T04:04:57.768Z,1.70
2023-03-13T04:07:32.186Z,1.73
2023-03-13T04:10:00.422Z,1.45
2023-03-13T04:12:36.493Z,1.52
2023-03-13T04:15:05.542Z,1.10
2023-03-13T04:17:33.521Z,1.10
2023-03-13T04:20:02.794Z,1.10
2023-03-13T04:22:32.045Z,1.25
2023-03-13T04:25:00.633Z,0.70
2023-03-13T04:27:30.837Z,0.90
2023-03-13T04:29:58.743Z,1.10
2023-03-13T04:32:38.290Z,0.68
2023-03-13T04:35:25.122Z,0.68
2023-03-13T04:38:11.390Z,0.98
2023-03-13T04:40:57.609Z,0.80
2023-03-13T04:43:48.215Z,0.70
2023-03-13T04:46:36.331Z,0.65
2023-03-13T04:49:25.021Z,0.35
2023-03-13T04:52:17.310Z,0.40
2023-03-13T04:55:02.102Z,0.93
2023-03-13T04:57:50.159Z,0.57
2023-03-13T05:00:27.458Z,0.90
2023-03-13T05:03:17.276Z,0.70
2023-03-13T05:06:05.826Z,0.70
2023-03-13T05:08:58.165Z,0.57
2023-03-13T05:11:57.773Z,0.68
2023-03-13T05:14:44.545Z,0.70
2023-03-13T05:17:35.334Z,0.50
2023-03-13T05:20:21.659Z,0.52
2023-03-13T05:23:00.545Z,0.60
2023-03-13T05:25:48.585Z,0.30
2023-03-13T05:28:16.309Z,0.70
2023-03-13T05:30:49.804Z,0.60
2023-03-13T05:33:37.839Z,0.50
2023-03-13T05:36:29.458Z,0.40
2023-03-13T05:38:57.329Z,0.47
2023-03-13T05:41:46.115Z,0.50
2023-03-13T05:44:19.745Z,0.50
2023-03-13T05:46:56.756Z,0.50
2023-03-13T05:49:54.072Z,0.73
2023-03-13T05:52:54.775Z,0.50
2023-03-13T05:55:54.704Z,0.45
2023-03-13T05:58:50.804Z,0.60
2023-03-13T06:01:39.095Z,0.35
2023-03-13T06:04:19.589Z,0.40
2023-03-13T06:06:48.077Z,0.43
2023-03-13T06:09:17.264Z,0.45
2023-03-13T06:11:46.206Z,0.60
2023-03-13T06:14:18.359Z,1.00
2023-03-13T06:17:04.877Z,0.50
2023-03-13T06:19:33.116Z,0.55
2023-03-13T06:22:00.796Z,0.22
2023-03-13T06:24:28.777Z,0.57
2023-03-13T06:26:56.669Z,0.40
2023-03-13T06:29:25.804Z,0.63
2023-03-13T06:31:53.685Z,0.50
2023-03-13T06:34:21.619Z,0.40
2023-03-13T06:36:49.323Z,0.50
2023-03-13T06:39:17.111Z,0.60
2023-03-13T06:41:44.866Z,0.40
2023-03-13T06:44:12.724Z,0.35
2023-03-13T06:46:41.935Z,0.55
2023-03-13T06:49:09.737Z,0.40
2023-03-13T06:51:37.598Z,0.40
2023-03-13T06:54:05.338Z,0.40
2023-03-13T06:56:33.439Z,0.40
2023-03-13T06:59:01.172Z,0.40
2023-03-13T07:01:29.041Z,0.47
2023-03-13T07:03:58.252Z,0.40
2023-03-13T07:06:26.891Z,0.35
2023-03-13T07:08:54.710Z,0.40
2023-03-13T07:11:22.490Z,0.40
2023-03-13T07:13:50.277Z,0.50
2023-03-13T07:16:18.116Z,0.40
2023-03-13T07:18:45.963Z,0.40
2023-03-13T07:21:17.214Z,0.45
2023-03-13T07:23:44.907Z,0.50
2023-03-13T07:26:14.943Z,0.40
2023-03-13T07:28:43.125Z,0.45
2023-03-13T07:31:14.417Z,0.55
2023-03-13T07:33:43.070Z,0.38
2023-03-13T07:36:11.536Z,0.40
2023-03-13T07:38:41.112Z,0.50
2023-03-13T07:41:08.859Z,0.38
2023-03-13T07:43:36.514Z,0.40
2023-03-13T07:46:07.115Z,0.57
2023-03-13T07:48:36.630Z,0.47
2023-03-13T07:51:05.990Z,0.52
2023-03-13T07:53:34.133Z,0.40
2023-03-13T07:56:05.720Z,0.40
2023-03-13T07:58:35.517Z,0.40
2023-03-13T08:01:09.991Z,0.40
2023-03-13T08:03:38.196Z,0.40
2023-03-13T08:06:09.431Z,0.45
2023-03-13T08:08:38.170Z,0.38
2023-03-13T08:11:13.389Z,0.50
2023-03-13T08:13:42.641Z,0.50
2023-03-13T08:16:13.218Z,0.47
2023-03-13T08:18:42.817Z,0.40
2023-03-13T08:21:12.563Z,0.57
2023-03-13T08:23:40.755Z,0.40
2023-03-13T08:26:11.884Z,0.50
2023-03-13T08:28:40.812Z,0.50
2023-03-13T08:31:10.191Z,0.50
2023-03-13T08:33:38.006Z,0.50
2023-03-13T08:36:17.548Z,0.50
2023-03-13T08:38:46.653Z,0.43
2023-03-13T08:41:17.616Z,0.47
2023-03-13T08:43:46.087Z,0.60
2023-03-13T08:46:14.110Z,0.60
2023-03-13T08:48:42.632Z,0.47
2023-03-13T08:51:12.059Z,0.80
2023-03-13T08:53:41.183Z,0.63
2023-03-13T08:56:11.124Z,0.82
2023-03-13T08:58:41.189Z,0.50
2023-03-13T09:01:11.143Z,0.75
2023-03-13T09:03:39.324Z,0.43
2023-03-13T09:06:08.246Z,0.80
2023-03-13T09:08:36.362Z,0.80
2023-03-13T09:11:06.481Z,1.27
2023-03-13T09:13:36.148Z,1.30
2023-03-13T09:16:07.600Z,0.90
2023-03-13T09:18:36.074Z,1.70
2023-03-13T09:21:09.827Z,1.40
2023-03-13T09:23:37.754Z,1.40
2023-03-13T09:26:06.619Z,1.15
2023-03-13T09:28:35.165Z,1.25
2023-03-13T09:31:12.177Z,1.50
2023-03-13T09:33:40.389Z,1.45
2023-03-13T09:36:09.413Z,1.00
2023-03-13T09:38:37.724Z,1.60
2023-03-13T09:41:20.927Z,1.75
2023-03-13T09:43:52.912Z,1.40
2023-03-13T09:46:26.268Z,1.27
2023-03-13T09:48:57.588Z,1.70
2023-03-13T09:51:29.513Z,1.45
2023-03-13T09:54:03.645Z,1.60
2023-03-13T09:59:09.750Z,2.20
2023-03-13T10:01:41.375Z,1.58
2023-03-13T10:04:24.106Z,1.77
2023-03-13T10:06:52.118Z,1.60
2023-03-13T10:09:23.118Z,0.95
2023-03-13T10:12:03.475Z,1.65
2023-03-13T10:14:34.912Z,1.25
2023-03-13T10:17:10.517Z,1.42
2023-03-13T10:19:43.492Z,1.42
2023-03-13T10:22:15.471Z,1.33
2023-03-13T10:24:51.390Z,1.27
2023-03-13T10:27:19.430Z,1.40
2023-03-13T10:29:47.252Z,1.50
2023-03-13T10:32:18.697Z,1.80
2023-03-13T10:34:51.882Z,1.35
2023-03-13T10:37:23.111Z,2.05
2023-03-13T10:39:52.549Z,1.80
2023-03-13T10:42:25.794Z,1.80
2023-03-13T10:45:00.769Z,1.73
2023-03-13T10:47:35.219Z,1.52
2023-03-13T10:50:07.134Z,1.38
2023-03-13T10:52:42.352Z,1.40
2023-03-13T10:55:14.266Z,1.15
2023-03-13T10:57:44.828Z,1.20
2023-03-13T11:00:37.041Z,1.50
2023-03-13T11:03:14.831Z,0.85
2023-03-13T11:05:43.643Z,1.33
2023-03-13T11:08:30.218Z,1.33
2023-03-13T11:11:00.329Z,1.35
2023-03-13T11:13:37.074Z,1.40
2023-03-13T11:16:19.143Z,1.23
2023-03-13T11:19:07.007Z,1.40
2023-03-13T11:21:43.530Z,1.52
2023-03-13T11:24:19.121Z,1.23
2023-03-13T11:27:05.228Z,1.50
2023-03-13T11:29:40.965Z,1.38
2023-03-13T11:32:23.995Z,1.15
2023-03-13T11:34:58.119Z,1.60
2023-03-13T11:37:32.496Z,1.52
2023-03-13T11:40:11.748Z,0.98
2023-03-13T11:43:24.179Z,1.10
2023-03-13T11:46:05.526Z,1.45
2023-03-13T11:49:00.290Z,1.52
2023-03-13T11:54:28.223Z,1.65
2023-03-13T11:59:42.125Z,1.50
2023-03-13T12:02:22.173Z,1.30
2023-03-13T12:04:55.307Z,1.20
2023-03-13T12:07:31.047Z,1.83
2023-03-13T12:10:02.844Z,1.23
2023-03-13T12:12:40.456Z,1.17
2023-03-13T12:15:19.797Z,1.52
2023-03-13T12:17:52.886Z,1.20
2023-03-13T12:20:26.413Z,1.53
2023-03-13T12:23:08.319Z,1.00
2023-03-13T12:25:45.132Z,0.93
2023-03-13T12:28:24.906Z,1.30
2023-03-13T12:31:00.338Z,1.20
2023-03-13T12:33:33.479Z,1.40
2023-03-13T12:36:07.931Z,0.90
2023-03-13T12:38:41.408Z,1.10
2023-03-13T12:41:26.656Z,1.20
2023-03-13T12:44:11.532Z,1.00
2023-03-13T12:46:44.523Z,1.05
2023-03-13T12:49:32.534Z,1.23
2023-03-13T12:52:20.037Z,1.00
2023-03-13T12:55:01.131Z,1.00
2023-03-13T12:57:58.714Z,0.90
2023-03-13T13:00:29.898Z,1.00
2023-03-13T13:03:16.962Z,1.10
2023-03-13T13:06:00.670Z,1.40
2023-03-13T13:08:32.181Z,0.90
2023-03-13T13:11:41.714Z,0.90
2023-03-13T13:14:54.768Z,0.93
2023-03-13T13:17:29.833Z,1.70
2023-03-13T13:19:58.415Z,1.25
2023-03-13T13:22:48.006Z,1.10
2023-03-13T13:25:32.403Z,0.90
2023-03-13T13:30:40.529Z,0.80
2023-03-13T13:33:40.949Z,1.10
2023-03-13T13:36:32.268Z,1.10
2023-03-13T13:39:00.574Z,1.08
2023-03-13T13:41:37.752Z,1.00
2023-03-13T13:44:25.056Z,0.75
2023-03-13T13:46:54.531Z,1.05
2023-03-13T13:49:26.170Z,1.00
2023-03-13T13:52:38.480Z,0.80
2023-03-13T13:55:33.287Z,0.80
2023-03-13T13:58:04.729Z,0.85
2023-03-13T14:00:40.709Z,0.80
2023-03-13T14:03:21.080Z,0.73
2023-03-13T14:05:53.639Z,0.68
2023-03-13T14:08:25.325Z,1.25
2023-03-13T14:11:04.558Z,0.90
2023-03-13T14:13:32.413Z,0.50
2023-03-13T14:16:21.820Z,0.93
2023-03-13T14:18:52.211Z,0.40
2023-03-13T14:21:25.438Z,0.63
2023-03-13T14:23:53.920Z,1.00
2023-03-13T14:26:23.138Z,0.57
2023-03-13T14:28:52.724Z,0.40
2023-03-13T14:31:29.390Z,0.40
2023-03-13T14:33:58.507Z,0.65
2023-03-13T14:36:28.412Z,0.63
2023-03-13T14:38:57.523Z,0.80
2023-03-13T14:41:30.172Z,0.80
2023-03-13T14:44:05.256Z,0.70
2023-03-13T14:46:35.739Z,0.63
2023-03-13T14:49:09.111Z,0.60
2023-03-13T14:51:41.292Z,0.52
2023-03-13T14:54:26.924Z,0.60
2023-03-13T14:57:05.239Z,0.60
2023-03-13T14:59:33.090Z,0.73
2023-03-13T15:02:02.615Z,0.70
2023-03-13T15:04:52.739Z,0.60
2023-03-13T15:07:23.508Z,0.70
2023-03-13T15:09:51.786Z,0.40
2023-03-13T15:12:22.160Z,0.60
2023-03-13T15:14:51.667Z,0.68
2023-03-13T15:17:21.416Z,0.65
2023-03-13T15:19:51.834Z,0.70
2023-03-13T15:22:26.019Z,0.50
2023-03-13T15:25:05.606Z,0.47
2023-03-13T15:27:34.847Z,0.80
2023-03-13T15:30:02.647Z,0.75
2023-03-13T15:32:32.349Z,0.60
2023-03-13T15:35:01.919Z,0.80
2023-03-13T15:37:31.920Z,0.47
2023-03-13T15:39:59.671Z,0.55
2023-03-13T15:42:27.517Z,0.70
2023-03-13T15:44:55.240Z,0.35
2023-03-13T15:47:23.433Z,0.88
2023-03-13T15:49:51.257Z,0.70
2023-03-13T15:52:22.452Z,0.57
2023-03-13T15:54:52.342Z,0.68
2023-03-13T15:57:24.745Z,0.65
2023-03-13T15:59:53.126Z,0.70
2023-03-13T16:02:23.184Z,0.57
2023-03-13T16:04:52.092Z,0.68
2023-03-13T16:07:21.664Z,0.40
2023-03-13T16:09:51.343Z,0.90
2023-03-13T16:12:19.120Z,0.52
2023-03-13T16:14:46.861Z,0.50
2023-03-13T16:17:16.973Z,0.73
2023-03-13T16:19:45.338Z,0.50
2023-03-13T16:22:13.804Z,0.82
2023-03-13T16:24:42.099Z,0.70
2023-03-13T16:27:16.129Z,0.65
2023-03-13T16:32:13.931Z,0.55
2023-03-13T16:34:42.059Z,0.80
2023-03-13T16:37:14.278Z,0.50
2023-03-13T16:39:42.935Z,0.73
2023-03-13T16:42:10.800Z,0.70
2023-03-13T16:44:40.473Z,0.80
2023-03-13T16:47:17.762Z,0.60
2023-03-13T16:49:47.465Z,0.40
2023-03-13T16:52:16.205Z,0.45
2023-03-13T16:54:44.619Z,0.82
2023-03-13T16:57:13.565Z,0.77
2023-03-13T16:59:42.635Z,0.70
2023-03-13T17:02:15.923Z,0.80
2023-03-13T17:04:44.862Z,1.17
2023-03-13T17:07:23.941Z,0.93
2023-03-13T17:09:52.986Z,1.00
2023-03-13T17:12:20.944Z,0.85
2023-03-13T17:14:50.288Z,1.25
2023-03-13T17:17:21.430Z,0.98
2023-03-13T17:19:49.219Z,1.73
2023-03-13T17:22:18.983Z,1.10
2023-03-13T17:24:48.515Z,1.08
2023-03-13T17:27:18.110Z,0.90
2023-03-13T17:29:45.946Z,1.15
2023-03-13T17:32:17.562Z,1.15
2023-03-13T17:34:45.361Z,1.52
2023-03-13T17:37:16.536Z,1.02
2023-03-13T17:39:44.661Z,4.30
2023-03-13T17:42:12.713Z,2.22
2023-03-13T17:44:41.398Z,1.25
2023-03-13T17:47:15.863Z,1.20
2023-03-13T17:49:44.056Z,1.65
2023-03-13T17:52:14.714Z,1.98
2023-03-13T17:54:43.040Z,1.52
2023-03-13T17:57:16.264Z,1.13
2023-03-13T17:59:44.648Z,0.90
2023-03-13T18:02:14.013Z,2.17
2023-03-13T18:04:44.562Z,1.10
2023-03-13T18:07:17.894Z,1.20
2023-03-13T18:09:47.614Z,1.10
2023-03-13T18:12:16.673Z,1.33
2023-03-13T18:14:44.868Z,1.42
2023-03-13T18:17:16.511Z,1.65
2023-03-13T18:19:46.339Z,1.05
2023-03-13T18:22:16.342Z,1.77
2023-03-13T18:24:44.320Z,0.95
2023-03-13T18:27:14.300Z,1.35
2023-03-13T18:29:43.122Z,1.80
2023-03-13T18:32:13.142Z,1.95
2023-03-13T18:34:42.277Z,2.38
2023-03-13T18:37:20.908Z,2.08
2023-03-13T18:39:49.931Z,1.90
2023-03-13T18:42:18.138Z,1.92
2023-03-13T18:44:45.899Z,1.75
2023-03-13T18:47:15.231Z,1.88
2023-03-13T18:49:43.170Z,1.77
2023-03-13T18:52:11.609Z,2.20
2023-03-13T18:54:41.519Z,2.20
2023-03-13T18:57:13.580Z,2.80
2023-03-13T18:59:41.362Z,2.80
2023-03-13T19:02:14.805Z,2.20
2023-03-13T19:04:42.797Z,2.35
2023-03-13T19:07:16.233Z,1.30
2023-03-13T19:09:46.993Z,0.97
2023-03-13T19:12:16.427Z,2.13
2023-03-13T19:14:56.653Z,3.92
2023-03-13T19:17:29.004Z,2.90
2023-03-13T19:19:57.985Z,3.08
2023-03-13T19:22:26.264Z,3.33
2023-03-13T19:24:55.667Z,2.65
2023-03-13T19:27:23.614Z,2.90
2023-03-13T19:29:51.381Z,2.72
2023-03-13T19:32:19.839Z,3.47
2023-03-13T19:34:47.627Z,2.17
2023-03-13T19:37:18.846Z,1.40
2023-03-13T19:39:46.824Z,1.80
2023-03-13T19:42:15.925Z,2.55
2023-03-13T19:44:43.711Z,2.28
2023-03-13T19:47:16.563Z,2.30
2023-03-13T19:49:47.014Z,2.50
2023-03-13T19:52:23.268Z,2.40
2023-03-13T19:55:05.072Z,2.90
2023-03-13T20:00:19.460Z,2.47
2023-03-13T20:02:47.329Z,1.38
2023-03-13T20:05:15.242Z,3.75
2023-03-13T20:07:43.423Z,1.90
2023-03-13T20:10:13.689Z,1.15
2023-03-13T20:12:46.012Z,1.08
2023-03-13T20:15:14.034Z,0.95
2023-03-13T20:17:41.890Z,1.58
2023-03-13T20:20:13.319Z,1.00
2023-03-13T20:22:41.377Z,0.88
2023-03-13T20:25:10.942Z,1.00
2023-03-13T20:27:39.194Z,1.13
2023-03-13T20:30:09.986Z,1.20
2023-03-13T20:32:43.400Z,0.90
2023-03-13T20:35:17.305Z,0.73
2023-03-13T20:37:45.134Z,1.30
2023-03-13T20:40:14.612Z,1.33
2023-03-13T20:42:42.647Z,1.02
2023-03-13T20:45:12.651Z,1.88
2023-03-13T20:47:40.450Z,1.33
2023-03-13T20:50:10.089Z,0.55
2023-03-13T20:52:38.153Z,0.70
2023-03-13T20:55:06.601Z,0.55
2023-03-13T20:57:37.298Z,1.52
2023-03-13T21:00:06.956Z,0.70
2023-03-13T21:02:37.501Z,0.40
2023-03-13T21:05:05.644Z,1.00
2023-03-13T21:07:33.821Z,1.00
2023-03-13T21:10:01.782Z,1.00
2023-03-13T21:12:29.529Z,1.38
2023-03-13T21:14:58.052Z,1.25
2023-03-13T21:17:26.183Z,1.50
2023-03-13T21:19:55.343Z,1.00
2023-03-13T21:22:24.169Z,1.38
2023-03-13T21:24:52.039Z,1.58
2023-03-13T21:27:19.835Z,1.25
2023-03-13T21:29:50.805Z,1.17
2023-03-13T21:32:19.550Z,1.52
2023-03-13T21:34:47.632Z,0.90
2023-03-13T21:37:17.751Z,4.57
2023-03-13T21:39:47.494Z,2.65
2023-03-13T21:42:15.375Z,1.60
2023-03-13T21:44:43.272Z,1.00
2023-03-13T21:47:11.235Z,1.33
2023-03-13T21:49:39.107Z,2.28
2023-03-13T21:52:07.068Z,1.85
2023-03-13T21:54:36.235Z,1.60
2023-03-13T21:57:04.656Z,1.50
2023-03-13T21:59:32.589Z,3.00
2023-03-13T22:02:01.584Z,3.70
2023-03-13T22:04:29.320Z,4.47
2023-03-13T22:06:56.995Z,3.50
2023-03-13T22:09:24.830Z,3.53
2023-03-13T22:11:53.971Z,2.38
2023-03-13T22:14:22.240Z,4.20
2023-03-13T22:16:50.483Z,2.10
2023-03-13T22:19:18.460Z,2.90
2023-03-13T22:21:46.252Z,2.45
2023-03-13T22:24:14.129Z,1.40
2023-03-13T22:26:42.029Z,0.80
2023-03-13T22:29:11.121Z,1.27
2023-03-13T22:31:38.950Z,0.60
2023-03-13T22:34:06.753Z,0.80
2023-03-13T22:36:34.505Z,0.88
2023-03-13T22:39:02.333Z,0.98
2023-03-13T22:41:30.212Z,0.80
2023-03-13T22:44:00.324Z,0.70
2023-03-13T22:46:29.461Z,0.63
2023-03-13T22:48:57.263Z,0.57
2023-03-13T22:51:25.234Z,0.45
2023-03-13T22:53:53.003Z,0.60
2023-03-13T22:56:20.909Z,0.60
2023-03-13T22:58:48.821Z,0.57
2023-03-13T23:01:18.381Z,0.70
2023-03-13T23:03:47.657Z,0.60
2023-03-13T23:06:19.197Z,0.60
2023-03-13T23:08:47.939Z,0.50
2023-03-13T23:11:16.298Z,1.13
2023-03-13T23:13:44.066Z,1.02
2023-03-13T23:16:13.850Z,0.55
2023-03-13T23:18:42.662Z,0.88
2023-03-13T23:21:14.382Z,0.60
2023-03-13T23:23:42.888Z,0.50
2023-03-13T23:26:12.574Z,0.70
2023-03-13T23:28:41.086Z,0.60
2023-03-13T23:31:13.507Z,0.50
2023-03-13T23:33:41.294Z,0.68
2023-03-13T23:36:13.345Z,0.57
2023-03-13T23:38:41.280Z,0.70
2023-03-13T23:41:10.863Z,0.60
2023-03-13T23:43:39.237Z,0.45
2023-03-13T23:46:15.527Z,0.60
2023-03-13T23:48:43.474Z,0.60
2023-03-13T23:51:12.673Z,0.40
2023-03-13T23:53:43.048Z,0.70
2023-03-13T23:56:11.930Z,0.60
2023-03-13T23:58:39.995Z,0.50
